Terminal Aerodrome Forecast
Issued by NWS Grand Forks, ND

Home | Current Version | Previous Version | Text Only | Print | Product List | Glossary On
Versions: 1 2 3 4 5 6 7 8 9 10 11 12 13 14 15 16 17 18 19
115
FTUS43 KFGF 071733
TAFGFK
TAF
KGFK 071733Z 0718/0818 33030G40KT 3SM -SN BLSN BKN012
     FM080400 34025G35KT 5SM -SN BLSN BKN025
     FM081200 34022G31KT P6SM BKN025=

USA.gov is the U.S. government's official web portal to all federal, state and local government web resources and services.